sensor_id;sensor_type;location;lat;lon;timestamp;pressure;altitude;pressure_sealevel;temperature;humidity
60417;BME280;46263;44.726;10.396;2023-03-04T00:01:10;100758.88;;;11.05;61.34
60417;BME280;46263;44.726;10.396;2023-03-04T00:03:36;100767.75;;;11.04;61.35
60417;BME280;46263;44.726;10.396;2023-03-04T00:06:01;100774.63;;;11.03;61.55
60417;BME280;46263;44.726;10.396;2023-03-04T00:08:27;100768.81;;;11.01;60.91
60417;BME280;46263;44.726;10.396;2023-03-04T00:10:52;100767.81;;;10.93;61.11
60417;BME280;46263;44.726;10.396;2023-03-04T00:13:18;100768.81;;;10.95;60.84
60417;BME280;46263;44.726;10.396;2023-03-04T00:15:46;100767.81;;;10.93;60.98
60417;BME280;46263;44.726;10.396;2023-03-04T00:18:12;100772.16;;;10.88;61.00
60417;BME280;46263;44.726;10.396;2023-03-04T00:20:38;100779.28;;;10.89;60.92
60417;BME280;46263;44.726;10.396;2023-03-04T00:23:03;100774.44;;;10.84;61.39
60417;BME280;46263;44.726;10.396;2023-03-04T00:25:29;100776.22;;;10.87;61.06
60417;BME280;46263;44.726;10.396;2023-03-04T00:27:54;100777.50;;;10.86;61.38
60417;BME280;46263;44.726;10.396;2023-03-04T00:30:19;100767.31;;;10.94;61.09
60417;BME280;46263;44.726;10.396;2023-03-04T00:32:45;100776.94;;;10.99;60.00
60417;BME280;46263;44.726;10.396;2023-03-04T00:35:10;100770.38;;;10.91;60.62
60417;BME280;46263;44.726;10.396;2023-03-04T00:37:36;100769.34;;;10.94;60.14
60417;BME280;46263;44.726;10.396;2023-03-04T00:40:01;100768.28;;;10.97;60.47
60417;BME280;46263;44.726;10.396;2023-03-04T00:42:27;100770.59;;;10.98;60.34
60417;BME280;46263;44.726;10.396;2023-03-04T00:44:52;100775.22;;;10.85;60.82
60417;BME280;46263;44.726;10.396;2023-03-04T00:47:18;100780.31;;;10.86;60.64
60417;BME280;46263;44.726;10.396;2023-03-04T00:49:43;100773.19;;;10.85;60.26
60417;BME280;46263;44.726;10.396;2023-03-04T00:52:09;100771.44;;;10.82;60.29
60417;BME280;46263;44.726;10.396;2023-03-04T00:54:34;100774.22;;;10.82;60.17
60417;BME280;46263;44.726;10.396;2023-03-04T00:57:00;100777.03;;;10.77;60.22
60417;BME280;46263;44.726;10.396;2023-03-04T00:59:25;100769.41;;;10.72;60.20
60417;BME280;46263;44.726;10.396;2023-03-04T01:01:51;100759.84;;;10.56;60.36
60417;BME280;46263;44.726;10.396;2023-03-04T01:04:16;100749.97;;;10.44;60.86
60417;BME280;46263;44.726;10.396;2023-03-04T01:06:42;100754.53;;;10.47;60.70
60417;BME280;46263;44.726;10.396;2023-03-04T01:09:07;100748.94;;;10.53;60.51
60417;BME280;46263;44.726;10.396;2023-03-04T01:11:33;100746.63;;;10.46;60.47
60417;BME280;46263;44.726;10.396;2023-03-04T01:13:58;100737.25;;;10.43;60.77
60417;BME280;46263;44.726;10.396;2023-03-04T01:16:23;100734.25;;;10.31;61.09
60417;BME280;46263;44.726;10.396;2023-03-04T01:18:49;100735.72;;;10.42;60.54
60417;BME280;46263;44.726;10.396;2023-03-04T01:21:14;100735.00;;;10.36;60.61
60417;BME280;46263;44.726;10.396;2023-03-04T01:23:40;100731.19;;;10.39;60.68
60417;BME280;46263;44.726;10.396;2023-03-04T01:26:05;100732.72;;;10.40;60.46
60417;BME280;46263;44.726;10.396;2023-03-04T01:28:31;100729.66;;;10.38;60.78
60417;BME280;46263;44.726;10.396;2023-03-04T01:31:01;100729.41;;;10.36;60.74
60417;BME280;46263;44.726;10.396;2023-03-04T01:33:26;100727.94;;;10.25;61.06
60417;BME280;46263;44.726;10.396;2023-03-04T01:35:52;100733.25;;;10.33;60.55
60417;BME280;46263;44.726;10.396;2023-03-04T01:38:17;100724.09;;;10.28;60.59
60417;BME280;46263;44.726;10.396;2023-03-04T01:40:43;100724.34;;;10.35;60.68
60417;BME280;46263;44.726;10.396;2023-03-04T01:43:17;100729.41;;;10.36;60.61
60417;BME280;46263;44.726;10.396;2023-03-04T01:45:45;100721.56;;;10.30;60.39
60417;BME280;46263;44.726;10.396;2023-03-04T01:48:14;100716.25;;;10.26;60.54
60417;BME280;46263;44.726;10.396;2023-03-04T01:50:41;100715.03;;;9.89;61.84
60417;BME280;46263;44.726;10.396;2023-03-04T01:53:14;100712.75;;;9.82;62.30
60417;BME280;46263;44.726;10.396;2023-03-04T01:55:42;100714.50;;;9.96;62.06
60417;BME280;46263;44.726;10.396;2023-03-04T01:58:09;100712.97;;;10.11;61.64
60417;BME280;46263;44.726;10.396;2023-03-04T02:00:36;100714.00;;;10.14;61.47
60417;BME280;46263;44.726;10.396;2023-03-04T02:03:06;100718.28;;;10.26;61.47
60417;BME280;46263;44.726;10.396;2023-03-04T02:05:34;100717.00;;;10.27;61.41
60417;BME280;46263;44.726;10.396;2023-03-04T02:08:02;100709.41;;;10.22;61.55
60417;BME280;46263;44.726;10.396;2023-03-04T02:10:28;100714.50;;;10.18;61.47
60417;BME280;46263;44.726;10.396;2023-03-04T02:12:53;100711.19;;;10.14;61.53
60417;BME280;46263;44.726;10.396;2023-03-04T02:15:19;100707.41;;;10.06;61.60
60417;BME280;46263;44.726;10.396;2023-03-04T02:17:45;100700.81;;;10.09;61.62
60417;BME280;46263;44.726;10.396;2023-03-04T02:20:40;100707.41;;;10.06;61.88
60417;BME280;46263;44.726;10.396;2023-03-04T02:23:27;100706.41;;;10.09;61.61
60417;BME280;46263;44.726;10.396;2023-03-04T02:26:15;100710.47;;;10.08;61.87
60417;BME280;46263;44.726;10.396;2023-03-04T02:28:42;100705.88;;;10.05;61.94
60417;BME280;46263;44.726;10.396;2023-03-04T02:33:45;100713.53;;;9.99;62.02
60417;BME280;46263;44.726;10.396;2023-03-04T02:36:11;100710.47;;;10.08;61.76
60417;BME280;46263;44.726;10.396;2023-03-04T02:38:36;100704.63;;;10.00;62.13
60417;BME280;46263;44.726;10.396;2023-03-04T02:41:02;100703.34;;;10.07;61.84
60417;BME280;46263;44.726;10.396;2023-03-04T02:43:28;100711.47;;;10.05;62.01
60417;BME280;46263;44.726;10.396;2023-03-04T02:45:54;100710.19;;;10.06;61.85
60417;BME280;46263;44.726;10.396;2023-03-04T02:48:21;100709.19;;;10.09;61.75
60417;BME280;46263;44.726;10.396;2023-03-04T02:50:51;100705.34;;;10.12;61.54
60417;BME280;46263;44.726;10.396;2023-03-04T02:53:18;100710.47;;;10.08;61.64
60417;BME280;46263;44.726;10.396;2023-03-04T02:55:45;100700.81;;;10.09;61.68
60417;BME280;46263;44.726;10.396;2023-03-04T02:58:11;100710.47;;;10.08;61.83
60417;BME280;46263;44.726;10.396;2023-03-04T03:00:37;100711.19;;;10.08;61.87
60417;BME280;46263;44.726;10.396;2023-03-04T03:03:03;100709.94;;;10.04;61.90
60417;BME280;46263;44.726;10.396;2023-03-04T03:05:32;100702.84;;;9.97;61.84
60417;BME280;46263;44.726;10.396;2023-03-04T03:07:58;100701.81;;;9.95;61.61
60417;BME280;46263;44.726;10.396;2023-03-04T03:10:24;100705.38;;;9.84;61.70
60417;BME280;46263;44.726;10.396;2023-03-04T03:12:50;100705.91;;;9.88;61.55
60417;BME280;46263;44.726;10.396;2023-03-04T03:15:16;100708.69;;;9.77;61.84
60417;BME280;46263;44.726;10.396;2023-03-04T03:17:42;100704.13;;;9.74;62.31
60417;BME280;46263;44.726;10.396;2023-03-04T03:20:09;100696.00;;;9.82;62.40
60417;BME280;46263;44.726;10.396;2023-03-04T03:22:35;100698.53;;;9.85;62.15
60417;BME280;46263;44.726;10.396;2023-03-04T03:25:00;100697.53;;;9.83;62.19
60417;BME280;46263;44.726;10.396;2023-03-04T03:27:26;100699.06;;;9.78;61.93
60417;BME280;46263;44.726;10.396;2023-03-04T03:29:51;100692.69;;;9.78;61.97
60417;BME280;46263;44.726;10.396;2023-03-04T03:32:17;100698.78;;;9.82;62.19
60417;BME280;46263;44.726;10.396;2023-03-04T03:34:42;100700.81;;;9.81;61.84
60417;BME280;46263;44.726;10.396;2023-03-04T03:37:07;100694.75;;;9.77;61.93
60417;BME280;46263;44.726;10.396;2023-03-04T03:39:33;100701.84;;;9.78;62.00
60417;BME280;46263;44.726;10.396;2023-03-04T03:41:58;100692.22;;;9.74;62.28
60417;BME280;46263;44.726;10.396;2023-03-04T03:44:24;100693.97;;;9.82;62.03
60417;BME280;46263;44.726;10.396;2023-03-04T03:46:49;100697.78;;;9.85;62.04
60417;BME280;46263;44.726;10.396;2023-03-04T03:49:15;100693.69;;;9.86;61.76
60417;BME280;46263;44.726;10.396;2023-03-04T03:51:41;100693.69;;;9.86;61.60
60417;BME280;46263;44.726;10.396;2023-03-04T03:54:07;100699.06;;;9.73;61.65
60417;BME280;46263;44.726;10.396;2023-03-04T03:56:32;100695.50;;;9.67;61.60
60417;BME280;46263;44.726;10.396;2023-03-04T03:58:57;100689.69;;;9.65;61.22
60417;BME280;46263;44.726;10.396;2023-03-04T04:01:24;100689.19;;;9.61;61.81
60417;BME280;46263;44.726;10.396;2023-03-04T04:03:49;100683.34;;;9.59;61.88
60417;BME280;46263;44.726;10.396;2023-03-04T04:06:15;100681.03;;;9.63;61.83
60417;BME280;46263;44.726;10.396;2023-03-04T04:08:40;100684.09;;;9.65;61.94
60417;BME280;46263;44.726;10.396;2023-03-04T04:11:09;100681.56;;;9.61;61.92
60417;BME280;46263;44.726;10.396;2023-03-04T04:13:34;100691.72;;;9.64;61.98
60417;BME280;46263;44.726;10.396;2023-03-04T04:15:59;100689.41;;;9.68;62.00
60417;BME280;46263;44.726;10.396;2023-03-04T04:18:25;100681.81;;;9.69;62.04
60417;BME280;46263;44.726;10.396;2023-03-04T04:20:51;100692.47;;;9.65;62.10
60417;BME280;46263;44.726;10.396;2023-03-04T04:23:17;100685.09;;;9.62;62.09
60417;BME280;46263;44.726;10.396;2023-03-04T04:25:43;100690.41;;;9.65;61.79
60417;BME280;46263;44.726;10.396;2023-03-04T04:28:08;100681.81;;;9.63;61.58
60417;BME280;46263;44.726;10.396;2023-03-04T04:30:34;100686.63;;;9.63;61.58
60417;BME280;46263;44.726;10.396;2023-03-04T04:32:59;100683.09;;;9.57;61.47
60417;BME280;46263;44.726;10.396;2023-03-04T04:35:27;100678.28;;;9.47;61.51
60417;BME280;46263;44.726;10.396;2023-03-04T04:37:52;100679.03;;;9.47;61.49
60417;BME280;46263;44.726;10.396;2023-03-04T04:40:18;100684.13;;;9.49;61.11
60417;BME280;46263;44.726;10.396;2023-03-04T04:42:44;100685.13;;;9.46;61.39
60417;BME280;46263;44.726;10.396;2023-03-04T04:45:09;100683.34;;;9.43;61.54
60417;BME280;46263;44.726;10.396;2023-03-04T04:47:35;100678.25;;;9.30;61.58
60417;BME280;46263;44.726;10.396;2023-03-04T04:50:01;100675.22;;;9.23;61.73
60417;BME280;46263;44.726;10.396;2023-03-04T04:52:26;100674.47;;;9.22;61.93
60417;BME280;46263;44.726;10.396;2023-03-04T04:54:51;100683.56;;;9.06;62.25
60417;BME280;46263;44.726;10.396;2023-03-04T04:57:17;100677.00;;;9.09;62.18
60417;BME280;46263;44.726;10.396;2023-03-04T04:59:42;100686.63;;;9.08;62.38
60417;BME280;46263;44.726;10.396;2023-03-04T05:02:08;100686.13;;;9.04;62.33
60417;BME280;46263;44.726;10.396;2023-03-04T05:04:33;100679.00;;;9.09;61.93
60417;BME280;46263;44.726;10.396;2023-03-04T05:06:58;100673.19;;;9.07;62.17
60417;BME280;46263;44.726;10.396;2023-03-04T05:09:24;100672.41;;;8.95;62.60
60417;BME280;46263;44.726;10.396;2023-03-04T05:11:49;100670.38;;;8.96;62.50
60417;BME280;46263;44.726;10.396;2023-03-04T05:14:15;100680.00;;;9.00;62.74
60417;BME280;46263;44.726;10.396;2023-03-04T05:16:40;100676.97;;;8.98;62.69
60417;BME280;46263;44.726;10.396;2023-03-04T05:19:06;100676.47;;;8.94;62.37
60417;BME280;46263;44.726;10.396;2023-03-04T05:21:31;100678.72;;;8.85;63.29
60417;BME280;46263;44.726;10.396;2023-03-04T05:23:57;100678.44;;;8.77;63.26
60417;BME280;46263;44.726;10.396;2023-03-04T05:26:22;100680.75;;;8.90;63.07
60417;BME280;46263;44.726;10.396;2023-03-04T05:28:48;100680.25;;;8.97;62.81
60417;BME280;46263;44.726;10.396;2023-03-04T05:31:13;100687.63;;;9.00;62.69
60417;BME280;46263;44.726;10.396;2023-03-04T05:33:39;100679.78;;;9.09;62.52
60417;BME280;46263;44.726;10.396;2023-03-04T05:36:05;100676.72;;;9.07;62.44
60417;BME280;46263;44.726;10.396;2023-03-04T05:38:31;100683.06;;;9.13;62.65
60417;BME280;46263;44.726;10.396;2023-03-04T05:40:59;100680.03;;;9.11;62.26
60417;BME280;46263;44.726;10.396;2023-03-04T05:43:26;100685.63;;;9.11;62.90
60417;BME280;46263;44.726;10.396;2023-03-04T05:45:53;100679.50;;;9.07;62.76
60417;BME280;46263;44.726;10.396;2023-03-04T05:48:18;100680.53;;;9.04;63.22
60417;BME280;46263;44.726;10.396;2023-03-04T05:50:44;100684.09;;;9.10;62.77
60417;BME280;46263;44.726;10.396;2023-03-04T05:53:09;100691.69;;;9.15;62.75
60417;BME280;46263;44.726;10.396;2023-03-04T05:55:35;100691.72;;;9.26;62.81
60417;BME280;46263;44.726;10.396;2023-03-04T05:58:00;100695.50;;;9.29;62.40
60417;BME280;46263;44.726;10.396;2023-03-04T06:00:26;100698.81;;;9.27;63.03
60417;BME280;46263;44.726;10.396;2023-03-04T06:02:51;100700.56;;;9.14;63.02
60417;BME280;46263;44.726;10.396;2023-03-04T06:05:17;100697.50;;;9.06;62.99
60417;BME280;46263;44.726;10.396;2023-03-04T06:07:43;100705.63;;;9.04;63.18
60417;BME280;46263;44.726;10.396;2023-03-04T06:10:11;100704.59;;;9.02;63.39
60417;BME280;46263;44.726;10.396;2023-03-04T06:12:37;100710.94;;;9.02;63.38
60417;BME280;46263;44.726;10.396;2023-03-04T06:15:03;100705.88;;;9.06;63.28
60417;BME280;46263;44.726;10.396;2023-03-04T06:17:30;100702.34;;;9.11;62.90
60417;BME280;46263;44.726;10.396;2023-03-04T06:19:55;100694.97;;;9.08;62.96
60417;BME280;46263;44.726;10.396;2023-03-04T06:22:21;100705.13;;;9.17;63.08
60417;BME280;46263;44.726;10.396;2023-03-04T06:24:46;100708.19;;;9.24;63.06
60417;BME280;46263;44.726;10.396;2023-03-04T06:27:12;100711.50;;;9.28;63.01
60417;BME280;46263;44.726;10.396;2023-03-04T06:29:38;100705.91;;;9.39;62.73
60417;BME280;46263;44.726;10.396;2023-03-04T06:32:04;100699.56;;;9.39;63.33
60417;BME280;46263;44.726;10.396;2023-03-04T06:34:30;100709.44;;;9.45;63.25
60417;BME280;46263;44.726;10.396;2023-03-04T06:36:55;100713.00;;;9.46;62.98
60417;BME280;46263;44.726;10.396;2023-03-04T06:39:21;100719.09;;;9.44;62.69
60417;BME280;46263;44.726;10.396;2023-03-04T06:41:46;100722.16;;;9.35;62.89
60417;BME280;46263;44.726;10.396;2023-03-04T06:44:11;100722.13;;;9.30;63.21
60417;BME280;46263;44.726;10.396;2023-03-04T06:46:37;100725.91;;;9.27;62.80
60417;BME280;46263;44.726;10.396;2023-03-04T06:49:03;100721.59;;;9.26;63.36
60417;BME280;46263;44.726;10.396;2023-03-04T06:51:28;100723.91;;;9.22;63.39
60417;BME280;46263;44.726;10.396;2023-03-04T06:53:54;100725.91;;;9.27;63.82
60417;BME280;46263;44.726;10.396;2023-03-04T06:56:20;100733.03;;;9.39;63.51
60417;BME280;46263;44.726;10.396;2023-03-04T06:58:45;100724.91;;;9.46;63.44
60417;BME280;46263;44.726;10.396;2023-03-04T07:01:17;100734.31;;;9.54;63.47
60417;BME280;46263;44.726;10.396;2023-03-04T07:03:43;100726.22;;;9.61;63.00
60417;BME280;46263;44.726;10.396;2023-03-04T07:06:11;100731.28;;;9.63;63.51
60417;BME280;46263;44.726;10.396;2023-03-04T07:08:37;100726.22;;;9.67;63.49
60417;BME280;46263;44.726;10.396;2023-03-04T07:11:03;100730.50;;;9.73;63.51
60417;BME280;46263;44.726;10.396;2023-03-04T07:13:29;100735.81;;;9.88;63.64
60417;BME280;46263;44.726;10.396;2023-03-04T07:15:54;100739.63;;;9.96;63.56
60417;BME280;46263;44.726;10.396;2023-03-04T07:18:19;100733.06;;;10.04;63.40
60417;BME280;46263;44.726;10.396;2023-03-04T07:20:45;100737.34;;;10.11;63.42
60417;BME280;46263;44.726;10.396;2023-03-04T07:23:10;100736.59;;;10.16;63.47
60417;BME280;46263;44.726;10.396;2023-03-04T07:25:36;100741.38;;;10.21;63.58
60417;BME280;46263;44.726;10.396;2023-03-04T07:28:01;100737.06;;;10.31;63.78
60417;BME280;46263;44.726;10.396;2023-03-04T07:30:27;100743.13;;;10.34;63.83
60417;BME280;46263;44.726;10.396;2023-03-04T07:32:52;100746.69;;;10.40;63.67
60417;BME280;46263;44.726;10.396;2023-03-04T07:35:18;100742.56;;;10.58;63.86
60417;BME280;46263;44.726;10.396;2023-03-04T07:37:43;100744.28;;;10.66;64.31
60417;BME280;46263;44.726;10.396;2023-03-04T07:40:09;100743.25;;;10.75;63.96
60417;BME280;46263;44.726;10.396;2023-03-04T07:42:35;100737.13;;;10.76;63.73
60417;BME280;46263;44.726;10.396;2023-03-04T07:45:01;100745.47;;;10.87;63.01
60417;BME280;46263;44.726;10.396;2023-03-04T07:47:27;100746.75;;;10.86;63.03
60417;BME280;46263;44.726;10.396;2023-03-04T07:49:52;100739.19;;;10.76;64.03
60417;BME280;46263;44.726;10.396;2023-03-04T07:52:18;100752.16;;;10.68;64.61
60417;BME280;46263;44.726;10.396;2023-03-04T07:54:44;100741.97;;;10.76;64.86
60417;BME280;46263;44.726;10.396;2023-03-04T07:57:09;100740.63;;;10.88;64.56
60417;BME280;46263;44.726;10.396;2023-03-04T07:59:35;100733.00;;;10.94;64.26
60417;BME280;46263;44.726;10.396;2023-03-04T08:02:00;100741.59;;;11.01;64.39
60417;BME280;46263;44.726;10.396;2023-03-04T08:04:26;100742.81;;;11.11;64.13
60417;BME280;46263;44.726;10.396;2023-03-04T08:06:51;100739.22;;;11.16;63.43
60417;BME280;46263;44.726;10.396;2023-03-04T08:09:17;100734.06;;;11.25;62.95
60417;BME280;46263;44.726;10.396;2023-03-04T08:11:43;100739.63;;;11.31;62.45
60417;BME280;46263;44.726;10.396;2023-03-04T08:14:10;100737.53;;;11.42;62.54
60417;BME280;46263;44.726;10.396;2023-03-04T08:16:36;100730.06;;;11.56;62.17
60417;BME280;46263;44.726;10.396;2023-03-04T08:19:02;100737.63;;;11.66;60.91
60417;BME280;46263;44.726;10.396;2023-03-04T08:21:28;100734.53;;;11.70;59.61
60417;BME280;46263;44.726;10.396;2023-03-04T08:23:57;100735.94;;;11.82;59.04
60417;BME280;46263;44.726;10.396;2023-03-04T08:26:27;100727.22;;;11.91;59.49
60417;BME280;46263;44.726;10.396;2023-03-04T08:28:53;100725.41;;;11.93;59.59
60417;BME280;46263;44.726;10.396;2023-03-04T08:31:19;100722.56;;;11.98;59.15
60417;BME280;46263;44.726;10.396;2023-03-04T08:33:45;100722.22;;;12.07;59.49
60417;BME280;46263;44.726;10.396;2023-03-04T08:36:11;100723.19;;;12.10;59.12
60417;BME280;46263;44.726;10.396;2023-03-04T08:38:37;100723.38;;;12.17;58.70
60417;BME280;46263;44.726;10.396;2023-03-04T08:41:03;100734.00;;;12.24;58.50
60417;BME280;46263;44.726;10.396;2023-03-04T08:43:29;100721.75;;;12.27;59.59
60417;BME280;46263;44.726;10.396;2023-03-04T08:45:54;100722.44;;;12.33;58.72
60417;BME280;46263;44.726;10.396;2023-03-04T08:48:21;100721.63;;;12.38;58.72
60417;BME280;46263;44.726;10.396;2023-03-04T08:50:48;100723.97;;;12.34;59.68
60417;BME280;46263;44.726;10.396;2023-03-04T08:53:14;100721.16;;;12.34;59.63
60417;BME280;46263;44.726;10.396;2023-03-04T08:55:42;100723.88;;;12.40;59.22
60417;BME280;46263;44.726;10.396;2023-03-04T08:58:08;100726.81;;;12.53;59.10
60417;BME280;46263;44.726;10.396;2023-03-04T09:00:38;100720.59;;;12.60;59.18
60417;BME280;46263;44.726;10.396;2023-03-04T09:03:03;100719.47;;;12.68;59.15
60417;BME280;46263;44.726;10.396;2023-03-04T09:05:30;100721.22;;;12.71;58.77
60417;BME280;46263;44.726;10.396;2023-03-04T09:07:56;100719.34;;;12.79;58.18
60417;BME280;46263;44.726;10.396;2023-03-04T09:10:22;100725.41;;;12.83;58.01
60417;BME280;46263;44.726;10.396;2023-03-04T09:12:47;100708.78;;;12.85;57.66
60417;BME280;46263;44.726;10.396;2023-03-04T09:15:13;100717.72;;;12.89;58.18
60417;BME280;46263;44.726;10.396;2023-03-04T09:17:39;100713.19;;;12.80;57.81
60417;BME280;46263;44.726;10.396;2023-03-04T09:20:07;100711.06;;;12.92;57.73
60417;BME280;46263;44.726;10.396;2023-03-04T09:22:35;100710.66;;;13.01;58.00
60417;BME280;46263;44.726;10.396;2023-03-04T09:25:01;100709.28;;;13.07;57.01
60417;BME280;46263;44.726;10.396;2023-03-04T09:27:26;100700.47;;;13.16;57.55
60417;BME280;46263;44.726;10.396;2023-03-04T09:29:52;100707.53;;;13.23;56.15
60417;BME280;46263;44.726;10.396;2023-03-04T09:32:17;100704.50;;;13.21;57.64
60417;BME280;46263;44.726;10.396;2023-03-04T09:34:43;100702.91;;;13.25;56.57
60417;BME280;46263;44.726;10.396;2023-03-04T09:37:08;100698.94;;;13.34;56.35
60417;BME280;46263;44.726;10.396;2023-03-04T09:39:34;100702.44;;;13.40;56.67
60417;BME280;46263;44.726;10.396;2023-03-04T09:41:59;100705.66;;;13.44;55.78
60417;BME280;46263;44.726;10.396;2023-03-04T09:46:51;100701.41;;;13.55;56.66
60417;BME280;46263;44.726;10.396;2023-03-04T09:49:19;100698.19;;;13.64;56.31
60417;BME280;46263;44.726;10.396;2023-03-04T09:51:54;100713.72;;;13.65;54.69
60417;BME280;46263;44.726;10.396;2023-03-04T09:56:50;100707.94;;;13.76;54.77
60417;BME280;46263;44.726;10.396;2023-03-04T09:59:37;100707.31;;;13.83;55.01
60417;BME280;46263;44.726;10.396;2023-03-04T10:02:38;100707.94;;;13.89;53.90
60417;BME280;46263;44.726;10.396;2023-03-04T10:05:10;100703.97;;;13.98;54.96
60417;BME280;46263;44.726;10.396;2023-03-04T10:07:42;100701.50;;;13.94;52.45
60417;BME280;46263;44.726;10.396;2023-03-04T10:10:29;100695.47;;;14.03;53.70
60417;BME280;46263;44.726;10.396;2023-03-04T10:12:56;100694.03;;;14.10;52.23
60417;BME280;46263;44.726;10.396;2023-03-04T10:15:40;100688.66;;;14.12;52.07
60417;BME280;46263;44.726;10.396;2023-03-04T10:18:18;100692.25;;;14.12;51.62
60417;BME280;46263;44.726;10.396;2023-03-04T10:23:38;100677.97;;;14.23;52.56
60417;BME280;46263;44.726;10.396;2023-03-04T10:26:14;100677.56;;;14.19;52.01
60417;BME280;46263;44.726;10.396;2023-03-04T10:28:41;100682.19;;;14.30;52.29
60417;BME280;46263;44.726;10.396;2023-03-04T10:33:35;100680.13;;;14.43;53.06
60417;BME280;46263;44.726;10.396;2023-03-04T10:36:20;100679.03;;;14.46;52.77
60417;BME280;46263;44.726;10.396;2023-03-04T10:38:53;100671.25;;;14.52;53.02
60417;BME280;46263;44.726;10.396;2023-03-04T10:41:20;100675.13;;;14.62;53.13
60417;BME280;46263;44.726;10.396;2023-03-04T10:46:38;100664.19;;;14.71;52.26
60417;BME280;46263;44.726;10.396;2023-03-04T10:49:03;100651.66;;;14.72;53.25
60417;BME280;46263;44.726;10.396;2023-03-04T10:51:29;100651.94;;;14.82;53.20
60417;BME280;46263;44.726;10.396;2023-03-04T10:57:37;100645.84;;;14.91;52.06
60417;BME280;46263;44.726;10.396;2023-03-04T11:02:37;100638.34;;;15.06;52.07
60417;BME280;46263;44.726;10.396;2023-03-04T11:05:23;100635.19;;;15.10;52.51
60417;BME280;46263;44.726;10.396;2023-03-04T11:07:54;100635.78;;;15.15;53.62
60417;BME280;46263;44.726;10.396;2023-03-04T11:18:27;100628.22;;;15.23;51.15
60417;BME280;46263;44.726;10.396;2023-03-04T11:20:55;100616.81;;;15.29;52.29
60417;BME280;46263;44.726;10.396;2023-03-04T11:23:34;100609.06;;;15.42;51.75
60417;BME280;46263;44.726;10.396;2023-03-04T11:32:10;100602.03;;;15.56;49.20
60417;BME280;46263;44.726;10.396;2023-03-04T11:37:35;100603.03;;;15.66;50.33
60417;BME280;46263;44.726;10.396;2023-03-04T11:40:12;100591.78;;;15.66;49.09
60417;BME280;46263;44.726;10.396;2023-03-04T11:51:36;100573.84;;;15.84;48.34
60417;BME280;46263;44.726;10.396;2023-03-04T11:54:56;100565.09;;;15.95;48.40
60417;BME280;46263;44.726;10.396;2023-03-04T12:11:40;100544.59;;;16.30;49.63
60417;BME280;46263;44.726;10.396;2023-03-04T12:14:29;100538.59;;;16.41;49.58
60417;BME280;46263;44.726;10.396;2023-03-04T12:20:10;100525.13;;;16.54;48.08
60417;BME280;46263;44.726;10.396;2023-03-04T12:22:45;100523.81;;;16.55;47.95
60417;BME280;46263;44.726;10.396;2023-03-04T12:25:36;100520.03;;;16.60;49.33
60417;BME280;46263;44.726;10.396;2023-03-04T12:36:19;100501.81;;;16.76;44.42
60417;BME280;46263;44.726;10.396;2023-03-04T12:41:57;100487.91;;;16.78;45.17
60417;BME280;46263;44.726;10.396;2023-03-04T12:44:24;100487.53;;;16.74;44.18
60417;BME280;46263;44.726;10.396;2023-03-04T12:49:46;100474.16;;;16.89;43.96
60417;BME280;46263;44.726;10.396;2023-03-04T12:55:22;100474.75;;;17.03;45.44
60417;BME280;46263;44.726;10.396;2023-03-04T12:57:54;100470.97;;;17.00;43.04
60417;BME280;46263;44.726;10.396;2023-03-04T13:06:02;100459.88;;;16.80;44.56
60417;BME280;46263;44.726;10.396;2023-03-04T13:16:44;100446.31;;;17.08;46.25
60417;BME280;46263;44.726;10.396;2023-03-04T13:22:32;100447.81;;;17.02;42.00
60417;BME280;46263;44.726;10.396;2023-03-04T13:25:26;100450.47;;;17.00;43.44
60417;BME280;46263;44.726;10.396;2023-03-04T13:27:50;100443.69;;;17.10;44.20
60417;BME280;46263;44.726;10.396;2023-03-04T13:41:12;100427.28;;;17.39;41.74
60417;BME280;46263;44.726;10.396;2023-03-04T13:46:38;100418.59;;;17.44;43.40
60417;BME280;46263;44.726;10.396;2023-03-04T13:49:07;100416.38;;;17.28;42.53
60417;BME280;46263;44.726;10.396;2023-03-04T13:51:44;100415.78;;;17.37;41.29
60417;BME280;46263;44.726;10.396;2023-03-04T13:59:49;100406.31;;;17.49;42.99
60417;BME280;46263;44.726;10.396;2023-03-04T14:02:20;100405.19;;;17.52;41.96
60417;BME280;46263;44.726;10.396;2023-03-04T14:07:27;100400.28;;;17.53;41.83
60417;BME280;46263;44.726;10.396;2023-03-04T14:09:58;100396.88;;;17.61;42.27
60417;BME280;46263;44.726;10.396;2023-03-04T14:12:26;100395.72;;;17.64;42.21
60417;BME280;46263;44.726;10.396;2023-03-04T14:14:55;100390.81;;;17.65;42.66
60417;BME280;46263;44.726;10.396;2023-03-04T14:17:33;100387.25;;;17.64;42.78
60417;BME280;46263;44.726;10.396;2023-03-04T14:20:04;100382.53;;;17.67;42.97
60417;BME280;46263;44.726;10.396;2023-03-04T14:22:32;100383.25;;;17.67;42.92
60417;BME280;46263;44.726;10.396;2023-03-04T14:25:31;100381.22;;;17.60;42.81
60417;BME280;46263;44.726;10.396;2023-03-04T14:27:49;100371.66;;;17.49;41.94
60417;BME280;46263;44.726;10.396;2023-03-04T14:30:26;100368.28;;;17.50;42.90
60417;BME280;46263;44.726;10.396;2023-03-04T14:32:55;100376.56;;;17.48;43.85
60417;BME280;46263;44.726;10.396;2023-03-04T14:35:28;100365.84;;;17.47;43.25
60417;BME280;46263;44.726;10.396;2023-03-04T14:40:29;100367.56;;;17.35;42.41
60417;BME280;46263;44.726;10.396;2023-03-04T14:43:02;100358.31;;;17.27;42.12
60417;BME280;46263;44.726;10.396;2023-03-04T14:45:29;100354.41;;;17.30;42.46
60417;BME280;46263;44.726;10.396;2023-03-04T14:48:00;100352.34;;;17.15;42.61
60417;BME280;46263;44.726;10.396;2023-03-04T14:50:29;100340.84;;;17.13;42.43